createdAt,value
2022-12-23T00:02:42.447Z,3.44
2022-12-23T00:05:51.584Z,3.41
2022-12-23T00:09:02.890Z,3.49
2022-12-23T00:12:27.510Z,3.49
2022-12-23T00:15:33.968Z,3.53
2022-12-23T00:18:41.270Z,3.50
2022-12-23T00:21:48.703Z,3.53
2022-12-23T00:24:56.900Z,3.58
2022-12-23T00:28:04.020Z,3.49
2022-12-23T00:31:14.038Z,3.47
2022-12-23T00:34:22.068Z,3.52
2022-12-23T00:37:31.805Z,3.52
2022-12-23T00:40:59.823Z,3.49
2022-12-23T00:44:08.433Z,3.50
2022-12-23T00:47:34.569Z,3.56
2022-12-23T00:50:44.538Z,3.57
2022-12-23T00:53:50.512Z,3.57
2022-12-23T00:56:56.826Z,3.60
2022-12-23T01:00:03.336Z,3.64
2022-12-23T01:03:33.068Z,3.63
2022-12-23T01:06:41.159Z,3.57
2022-12-23T01:09:50.658Z,3.59
2022-12-23T01:12:58.457Z,3.57
2022-12-23T01:16:13.497Z,3.55
2022-12-23T01:19:22.475Z,3.54
2022-12-23T01:22:29.783Z,3.64
2022-12-23T01:25:35.983Z,3.70
2022-12-23T01:28:43.092Z,3.78
2022-12-23T01:31:52.044Z,3.81
2022-12-23T01:34:58.794Z,3.84
2022-12-23T01:38:04.068Z,3.86
2022-12-23T01:41:36.384Z,3.82
2022-12-23T01:45:03.509Z,3.91
2022-12-23T01:48:13.655Z,4.01
2022-12-23T01:51:24.208Z,4.05
2022-12-23T01:54:32.679Z,4.02
2022-12-23T01:57:41.509Z,4.02
2022-12-23T02:01:08.279Z,4.02
2022-12-23T02:04:18.867Z,4.13
2022-12-23T02:07:43.792Z,4.07
2022-12-23T02:10:53.840Z,4.02
2022-12-23T02:14:21.073Z,4.04
2022-12-23T02:17:30.879Z,4.01
2022-12-23T02:20:42.908Z,3.94
2022-12-23T02:24:21.573Z,3.89
2022-12-23T02:27:32.773Z,3.83
2022-12-23T02:31:10.241Z,3.73
2022-12-23T02:34:21.996Z,3.58
2022-12-23T02:37:33.251Z,3.53
2022-12-23T02:40:39.704Z,3.49
2022-12-23T02:43:47.460Z,3.52
2022-12-23T02:46:58.459Z,3.50
2022-12-23T02:50:10.914Z,3.61
2022-12-23T02:53:20.761Z,3.56
2022-12-23T02:56:28.477Z,3.60
2022-12-23T02:59:38.915Z,3.52
2022-12-23T03:02:46.641Z,3.57
2022-12-23T03:05:54.048Z,3.47
2022-12-23T03:09:03.505Z,3.49
2022-12-23T03:12:19.340Z,3.43
2022-12-23T03:15:34.130Z,3.46
2022-12-23T03:18:53.349Z,3.48
2022-12-23T03:22:19.036Z,3.46
2022-12-23T03:25:30.870Z,3.49
2022-12-23T03:28:50.548Z,3.46
2022-12-23T03:31:58.370Z,3.52
2022-12-23T03:35:08.618Z,3.43
2022-12-23T03:38:16.400Z,3.43
2022-12-23T03:41:29.085Z,3.43
2022-12-23T03:44:38.637Z,3.40
2022-12-23T03:47:54.091Z,3.34
2022-12-23T03:51:05.205Z,3.35
2022-12-23T03:54:21.111Z,3.38
2022-12-23T03:57:30.205Z,3.29
2022-12-23T04:00:40.740Z,3.32
2022-12-23T04:03:57.682Z,3.27
2022-12-23T04:07:08.962Z,3.29
2022-12-23T04:10:16.833Z,3.27
2022-12-23T04:13:21.840Z,3.26
2022-12-23T04:16:29.837Z,3.33
2022-12-23T04:19:38.085Z,3.25
2022-12-23T04:22:44.911Z,3.32
2022-12-23T04:25:52.331Z,3.23
2022-12-23T04:29:01.002Z,3.28
2022-12-23T04:32:06.563Z,3.16
2022-12-23T04:35:13.103Z,3.22
2022-12-23T04:38:21.312Z,3.19
2022-12-23T04:41:26.642Z,3.19
2022-12-23T04:44:33.798Z,3.23
2022-12-23T04:47:41.606Z,3.21
2022-12-23T04:50:50.740Z,3.21
2022-12-23T04:53:56.741Z,3.09
2022-12-23T04:57:03.444Z,3.06
2022-12-23T05:00:10.064Z,2.97
2022-12-23T05:03:15.204Z,2.94
2022-12-23T05:06:23.622Z,2.94
2022-12-23T05:09:29.283Z,2.91
2022-12-23T05:12:36.685Z,2.90
2022-12-23T05:15:45.447Z,2.91
2022-12-23T05:18:55.720Z,2.90
2022-12-23T05:22:00.520Z,2.97
2022-12-23T05:25:08.148Z,2.93
2022-12-23T05:28:15.324Z,2.99
2022-12-23T05:31:24.015Z,2.94
2022-12-23T05:34:29.485Z,2.89
2022-12-23T05:37:38.918Z,2.96
2022-12-23T05:40:43.694Z,2.80
2022-12-23T05:43:52.697Z,2.71
2022-12-23T05:46:59.819Z,2.68
2022-12-23T05:50:08.948Z,2.70
2022-12-23T05:53:18.524Z,2.83
2022-12-23T05:56:26.097Z,2.80
2022-12-23T05:59:33.751Z,2.79
2022-12-23T06:02:40.881Z,2.82
2022-12-23T06:05:52.119Z,2.89
2022-12-23T06:09:01.453Z,2.81
2022-12-23T06:12:09.493Z,2.93
2022-12-23T06:15:15.300Z,2.84
2022-12-23T06:18:21.809Z,2.81
2022-12-23T06:21:29.026Z,2.72
2022-12-23T06:24:35.970Z,2.74
2022-12-23T06:27:43.411Z,2.55
2022-12-23T06:30:56.961Z,2.57
2022-12-23T06:34:05.491Z,2.54
2022-12-23T06:37:11.384Z,2.54
2022-12-23T06:40:18.488Z,2.54
2022-12-23T06:43:25.280Z,2.39
2022-12-23T06:46:32.381Z,2.33
2022-12-23T06:49:39.768Z,2.27
2022-12-23T06:52:45.098Z,2.23
2022-12-23T06:56:01.580Z,2.25
2022-12-23T06:59:08.292Z,2.21
2022-12-23T07:02:16.824Z,2.19
2022-12-23T07:05:23.067Z,2.27
2022-12-23T07:08:29.560Z,2.35
2022-12-23T07:11:36.133Z,2.23
2022-12-23T07:14:42.897Z,2.30
2022-12-23T07:17:47.472Z,2.33
2022-12-23T07:20:53.596Z,2.40
2022-12-23T07:23:58.595Z,2.42
2022-12-23T07:27:03.294Z,2.38
2022-12-23T07:30:06.854Z,2.26
2022-12-23T07:33:10.445Z,2.30
2022-12-23T07:36:15.103Z,2.38
2022-12-23T07:39:20.908Z,2.36
2022-12-23T07:45:57.310Z,2.71
2022-12-23T07:49:04.359Z,2.51
2022-12-23T07:52:11.266Z,2.34
2022-12-23T07:55:14.854Z,2.49
2022-12-23T07:58:19.676Z,2.46
2022-12-23T08:01:25.497Z,2.49
2022-12-23T08:04:32.001Z,2.39
2022-12-23T08:07:36.577Z,2.50
2022-12-23T08:10:47.946Z,2.63
2022-12-23T08:13:54.529Z,2.50
2022-12-23T08:17:00.363Z,2.43
2022-12-23T08:20:04.315Z,2.44
2022-12-23T08:23:09.447Z,2.62
2022-12-23T08:26:19.730Z,2.81
2022-12-23T08:29:29.897Z,2.91
2022-12-23T08:32:37.920Z,2.91
2022-12-23T08:35:43.463Z,2.75
2022-12-23T08:38:50.401Z,2.86
2022-12-23T08:41:56.047Z,2.70
2022-12-23T08:45:02.091Z,2.79
2022-12-23T08:48:07.844Z,2.68
2022-12-23T08:51:13.695Z,2.63
2022-12-23T08:54:21.363Z,2.72
2022-12-23T08:57:27.279Z,2.65
2022-12-23T09:00:35.306Z,2.62
2022-12-23T09:03:40.729Z,2.76
2022-12-23T09:06:46.917Z,3.00
2022-12-23T09:09:52.384Z,3.00
2022-12-23T09:12:59.418Z,2.69
2022-12-23T09:16:02.575Z,2.86
2022-12-23T09:19:06.463Z,3.03
2022-12-23T09:22:10.601Z,3.02
2022-12-23T09:25:14.993Z,3.01
2022-12-23T09:28:21.422Z,3.00
2022-12-23T09:31:30.483Z,3.07
2022-12-23T09:34:37.237Z,2.96
2022-12-23T09:37:41.660Z,2.82
2022-12-23T09:40:46.406Z,2.78
2022-12-23T09:43:55.303Z,2.98
2022-12-23T09:47:02.646Z,2.90
2022-12-23T09:50:13.969Z,2.77
2022-12-23T09:53:21.980Z,2.79
2022-12-23T09:56:31.566Z,3.14
2022-12-23T09:59:44.983Z,3.00
2022-12-23T10:03:08.682Z,3.18
2022-12-23T10:06:20.373Z,3.01
2022-12-23T10:09:23.911Z,2.76
2022-12-23T10:12:39.711Z,2.73
2022-12-23T10:15:49.362Z,2.45
2022-12-23T10:18:55.045Z,2.52
2022-12-23T10:22:07.398Z,2.64
2022-12-23T10:25:15.347Z,2.76
2022-12-23T10:28:20.210Z,2.68
2022-12-23T10:31:40.402Z,3.05
2022-12-23T10:34:53.580Z,2.85
2022-12-23T10:37:58.712Z,2.76
2022-12-23T10:41:12.800Z,2.75
2022-12-23T10:44:36.225Z,2.98
2022-12-23T10:47:45.072Z,3.07
2022-12-23T10:50:55.513Z,3.04
2022-12-23T10:54:08.496Z,3.06
2022-12-23T10:57:16.291Z,3.27
2022-12-23T11:00:24.870Z,3.21
2022-12-23T11:03:31.558Z,2.93
2022-12-23T11:06:38.430Z,2.94
2022-12-23T11:09:46.603Z,2.92
2022-12-23T11:12:52.877Z,3.09
2022-12-23T11:16:12.005Z,2.95
2022-12-23T11:19:16.599Z,3.00
2022-12-23T11:22:23.672Z,3.10
2022-12-23T11:25:32.899Z,3.14
2022-12-23T11:28:47.463Z,2.95
2022-12-23T11:31:52.253Z,2.89
2022-12-23T11:34:58.000Z,3.05
2022-12-23T11:38:04.301Z,3.08
2022-12-23T11:41:10.569Z,3.19
2022-12-23T11:44:23.756Z,3.12
2022-12-23T11:47:34.099Z,2.97
2022-12-23T11:50:40.593Z,3.08
2022-12-23T11:53:47.231Z,3.17
2022-12-23T11:56:53.217Z,3.08
2022-12-23T12:00:02.209Z,3.13
2022-12-23T12:03:17.517Z,3.21
2022-12-23T12:06:23.790Z,3.26
2022-12-23T12:09:29.595Z,3.50
2022-12-23T12:12:33.837Z,3.54
2022-12-23T12:15:40.268Z,3.53
2022-12-23T12:18:55.518Z,3.60
2022-12-23T12:22:04.377Z,3.56
2022-12-23T12:25:20.750Z,3.46
2022-12-23T12:28:28.811Z,3.58
2022-12-23T12:31:43.060Z,3.69
2022-12-23T12:35:02.231Z,3.65
2022-12-23T12:38:15.856Z,3.72
2022-12-23T12:41:30.007Z,3.77
2022-12-23T12:44:54.951Z,3.87
2022-12-23T12:48:07.194Z,3.84
2022-12-23T12:51:34.664Z,3.90
2022-12-23T12:54:40.863Z,3.96
2022-12-23T12:57:47.577Z,3.94
2022-12-23T13:00:56.201Z,4.13
2022-12-23T13:04:31.362Z,4.07
2022-12-23T13:07:40.067Z,3.98
2022-12-23T13:10:58.173Z,4.06
2022-12-23T13:14:14.708Z,4.11
2022-12-23T13:17:22.015Z,3.93
2022-12-23T13:20:43.188Z,4.07
2022-12-23T13:24:03.826Z,4.10
2022-12-23T13:27:16.590Z,4.01
2022-12-23T13:30:25.135Z,4.10
2022-12-23T13:33:50.045Z,4.19
2022-12-23T13:37:14.719Z,4.19
2022-12-23T13:40:32.049Z,4.26
2022-12-23T13:43:44.365Z,4.10
2022-12-23T13:46:58.718Z,4.01
2022-12-23T13:50:09.806Z,3.96
2022-12-23T13:53:16.685Z,3.87
2022-12-23T13:56:24.927Z,3.86
2022-12-23T14:00:04.686Z,3.83
2022-12-23T14:03:23.593Z,3.89
2022-12-23T14:06:30.608Z,4.04
2022-12-23T14:09:39.479Z,4.09
2022-12-23T14:17:31.197Z,4.19
2022-12-23T14:20:38.838Z,4.26
2022-12-23T14:23:58.358Z,4.24
2022-12-23T14:27:26.051Z,4.11
2022-12-23T14:30:43.398Z,4.08
2022-12-23T14:33:50.976Z,3.98
2022-12-23T14:37:16.157Z,4.06
2022-12-23T14:40:41.793Z,4.09
2022-12-23T14:43:49.281Z,4.07
2022-12-23T14:46:55.778Z,4.09
2022-12-23T14:50:20.304Z,4.16
2022-12-23T14:53:26.790Z,4.21
2022-12-23T14:56:52.166Z,4.20
2022-12-23T15:00:02.407Z,4.24
2022-12-23T15:03:11.956Z,4.26
2022-12-23T15:06:21.964Z,4.18
2022-12-23T15:09:35.045Z,4.08
2022-12-23T15:12:42.741Z,4.06
2022-12-23T15:16:01.051Z,4.17
2022-12-23T15:19:18.107Z,4.18
2022-12-23T15:22:30.164Z,4.26
2022-12-23T15:25:42.008Z,4.27
2022-12-23T15:28:46.287Z,4.37
2022-12-23T15:31:53.561Z,4.28
2022-12-23T15:35:06.533Z,4.19
2022-12-23T15:38:17.657Z,4.22
2022-12-23T15:41:25.818Z,4.25
2022-12-23T15:44:38.661Z,4.30
2022-12-23T15:47:47.032Z,4.27
2022-12-23T15:50:56.731Z,4.21
2022-12-23T15:54:05.909Z,4.27
2022-12-23T15:57:19.212Z,4.29
2022-12-23T16:00:30.485Z,4.25
2022-12-23T16:03:41.523Z,4.32
2022-12-23T16:06:51.592Z,4.29
2022-12-23T16:10:01.784Z,4.40
2022-12-23T16:13:18.507Z,4.28
2022-12-23T16:16:27.953Z,4.31
2022-12-23T16:19:41.120Z,4.25
2022-12-23T16:22:50.954Z,4.14
2022-12-23T16:25:57.920Z,4.21
2022-12-23T16:29:10.550Z,4.14
2022-12-23T16:32:20.224Z,4.06
2022-12-23T16:35:29.371Z,4.08
2022-12-23T16:38:36.595Z,4.10
2022-12-23T16:41:48.441Z,4.11
2022-12-23T16:44:55.763Z,4.15
2022-12-23T16:48:03.080Z,4.22
2022-12-23T16:51:12.905Z,4.26
2022-12-23T16:54:23.449Z,4.23
2022-12-23T16:57:30.919Z,4.16
2022-12-23T17:00:42.840Z,4.21
2022-12-23T17:03:49.123Z,4.22
2022-12-23T17:06:55.242Z,4.13
2022-12-23T17:10:02.470Z,4.19
2022-12-23T17:13:15.538Z,4.13
2022-12-23T17:16:25.467Z,4.16
2022-12-23T17:19:32.963Z,4.03
2022-12-23T17:22:40.540Z,3.97
2022-12-23T17:25:47.752Z,3.85
2022-12-23T17:28:53.540Z,3.81
2022-12-23T17:32:04.380Z,3.84
2022-12-23T17:35:16.015Z,3.86
2022-12-23T17:38:24.641Z,3.96
2022-12-23T17:41:33.156Z,4.01
2022-12-23T17:44:42.928Z,3.98
2022-12-23T17:47:48.102Z,3.96
2022-12-23T17:50:56.612Z,4.03
2022-12-23T17:54:03.781Z,4.01
2022-12-23T17:57:19.693Z,4.02
2022-12-23T18:00:33.866Z,4.00
2022-12-23T18:03:42.799Z,3.98
2022-12-23T18:06:52.254Z,4.04
2022-12-23T18:10:02.383Z,4.05
2022-12-23T18:13:10.910Z,4.06
2022-12-23T18:16:17.267Z,4.08
2022-12-23T18:19:23.933Z,3.91
2022-12-23T18:22:32.346Z,4.05
2022-12-23T18:25:38.927Z,4.06
2022-12-23T18:28:46.230Z,4.09
2022-12-23T18:31:55.242Z,4.28
2022-12-23T18:35:00.862Z,4.16
2022-12-23T18:38:07.267Z,4.11
2022-12-23T18:41:14.314Z,4.08
2022-12-23T18:44:23.991Z,3.86
2022-12-23T18:47:33.119Z,3.76
2022-12-23T18:50:43.771Z,3.73
2022-12-23T18:53:51.130Z,3.88
2022-12-23T18:57:02.957Z,3.83
2022-12-23T19:00:14.030Z,3.90
2022-12-23T19:03:24.875Z,3.75
2022-12-23T19:06:31.416Z,3.82
2022-12-23T19:09:41.776Z,3.82
2022-12-23T19:12:50.861Z,3.83
2022-12-23T19:15:56.403Z,3.97
2022-12-23T19:19:05.305Z,3.82
2022-12-23T19:22:11.759Z,3.87
2022-12-23T19:25:20.990Z,3.93
2022-12-23T19:28:28.673Z,3.84
2022-12-23T19:31:37.531Z,3.84
2022-12-23T19:34:44.141Z,3.87
2022-12-23T19:37:48.813Z,3.97
2022-12-23T19:40:56.641Z,3.93
2022-12-23T19:44:00.305Z,3.92
2022-12-23T19:47:05.309Z,3.97
2022-12-23T19:50:13.535Z,3.97
2022-12-23T19:53:19.099Z,4.10
2022-12-23T19:56:27.917Z,4.05
2022-12-23T19:59:36.647Z,3.93
2022-12-23T20:02:44.185Z,3.90
2022-12-23T20:05:52.533Z,3.94
2022-12-23T20:09:04.380Z,4.04
2022-12-23T20:12:10.052Z,4.09
2022-12-23T20:15:15.362Z,3.96
2022-12-23T20:18:24.669Z,3.88
2022-12-23T20:21:31.860Z,4.01
2022-12-23T20:24:37.822Z,3.98
2022-12-23T20:27:44.435Z,3.94
2022-12-23T20:31:00.963Z,4.00
2022-12-23T20:34:12.549Z,4.02
2022-12-23T20:37:21.689Z,4.04
2022-12-23T20:40:30.051Z,4.04
2022-12-23T20:43:38.791Z,4.08
2022-12-23T20:46:44.223Z,4.17
2022-12-23T20:49:53.108Z,4.10
2022-12-23T20:53:00.596Z,4.00
2022-12-23T20:56:11.823Z,3.97
2022-12-23T20:59:17.516Z,3.85
2022-12-23T21:02:29.450Z,3.86
2022-12-23T21:05:37.871Z,3.87
2022-12-23T21:08:45.971Z,3.85
2022-12-23T21:11:54.175Z,3.92
2022-12-23T21:15:02.273Z,3.80
2022-12-23T21:18:10.417Z,3.66
2022-12-23T21:21:19.594Z,3.60
2022-12-23T21:24:26.874Z,3.57
2022-12-23T21:27:32.793Z,3.57
2022-12-23T21:30:39.583Z,3.57
2022-12-23T21:33:47.204Z,3.56
2022-12-23T21:36:55.980Z,3.67
2022-12-23T21:40:09.075Z,3.66
2022-12-23T21:43:15.182Z,3.73
2022-12-23T21:46:27.366Z,3.73
2022-12-23T21:49:36.789Z,3.63
2022-12-23T21:52:43.522Z,3.69
2022-12-23T21:55:49.936Z,3.78
2022-12-23T21:58:57.639Z,3.74
2022-12-23T22:02:03.764Z,3.81
2022-12-23T22:05:11.196Z,3.86
2022-12-23T22:08:17.073Z,3.81
2022-12-23T22:11:27.308Z,3.85
2022-12-23T22:14:33.903Z,3.90
2022-12-23T22:17:42.914Z,3.89
2022-12-23T22:20:53.096Z,3.84
2022-12-23T22:23:59.413Z,3.91
2022-12-23T22:27:07.149Z,3.68
2022-12-23T22:30:14.557Z,3.66
2022-12-23T22:33:19.874Z,3.72
2022-12-23T22:36:26.764Z,3.70
2022-12-23T22:39:33.473Z,3.75
2022-12-23T22:42:40.881Z,3.78
2022-12-23T22:45:48.948Z,3.73
2022-12-23T22:48:54.747Z,3.75
2022-12-23T22:52:00.161Z,3.74
2022-12-23T22:55:08.553Z,3.77
2022-12-23T22:58:18.292Z,3.88
2022-12-23T23:01:25.919Z,3.80
2022-12-23T23:04:33.496Z,3.77
2022-12-23T23:07:40.202Z,3.89
2022-12-23T23:10:46.265Z,3.99
2022-12-23T23:13:56.121Z,3.99
2022-12-23T23:17:03.125Z,3.93
2022-12-23T23:20:08.389Z,3.89
2022-12-23T23:23:12.487Z,4.02
2022-12-23T23:26:20.783Z,4.06
2022-12-23T23:29:24.505Z,4.06
2022-12-23T23:32:29.188Z,4.10
2022-12-23T23:35:36.851Z,4.13
2022-12-23T23:38:43.371Z,4.13
2022-12-23T23:41:47.945Z,4.09
2022-12-23T23:44:55.471Z,4.07
2022-12-23T23:48:03.214Z,3.84
2022-12-23T23:51:07.965Z,3.82
2022-12-23T23:54:13.245Z,3.72
2022-12-23T23:57:18.884Z,3.64
